You are not logged in, Click here to log in
機場資訊:KMIA Welcome to Taiwan Airways 台灣虛擬航空
ICAO: KMIA Country: 美國佛羅里達州邁阿密市中心西北13公里
Latitude: 25.7959 Longitude: -80.287
Total Arrivals: 24 Total Departures: 26
Latest Arrival: A224860 (TNCM-KMIA)Arthur. Kung Latest Departure: FS17 (KMIA-EBLG)ALAN. LIU
Scenery:
METAR : KMIA 171253Z 23006KT 10SM CLR 28/24 A2994 RMK AO2 SLP140 T02780244

邁阿密國際機場MIA